createdAt,value
2023-05-05T00:00:02.544Z,0
2023-05-05T00:05:03.376Z,0
2023-05-05T00:10:03.026Z,0
2023-05-05T00:15:02.930Z,0
2023-05-05T00:20:02.625Z,0
2023-05-05T00:25:02.507Z,0
2023-05-05T00:30:03.280Z,0
2023-05-05T00:35:03.315Z,0
2023-05-05T00:40:02.412Z,0
2023-05-05T00:45:03.181Z,0
2023-05-05T00:50:02.863Z,0
2023-05-05T00:55:02.906Z,0
2023-05-05T01:00:03.377Z,0
2023-05-05T01:05:03.114Z,0
2023-05-05T01:10:20.078Z,0
2023-05-05T01:15:03.039Z,0
2023-05-05T01:20:03.257Z,0
2023-05-05T01:25:03.266Z,0
2023-05-05T01:30:03.217Z,0
2023-05-05T01:35:02.763Z,0
2023-05-05T01:40:03.218Z,0
2023-05-05T01:45:03.077Z,0
2023-05-05T01:50:02.932Z,0
2023-05-05T01:55:03.209Z,0
2023-05-05T02:00:02.660Z,0
2023-05-05T02:05:03.512Z,0
2023-05-05T02:10:03.405Z,0
2023-05-05T02:15:02.954Z,0
2023-05-05T02:20:02.780Z,0
2023-05-05T02:25:02.500Z,0
2023-05-05T02:30:03.518Z,0
2023-05-05T02:35:03.068Z,0
2023-05-05T02:40:03.225Z,0
2023-05-05T02:45:03.095Z,0
2023-05-05T02:50:02.859Z,0
2023-05-05T02:55:03.419Z,0
2023-05-05T03:00:03.411Z,0
2023-05-05T03:05:03.092Z,0
2023-05-05T03:10:03.066Z,0.45
2023-05-05T03:15:03.053Z,6.67
2023-05-05T03:20:04.217Z,15
2023-05-05T03:25:02.929Z,31.67
2023-05-05T03:30:02.733Z,53.33
2023-05-05T03:35:02.811Z,85
2023-05-05T03:40:02.659Z,128.33
2023-05-05T03:45:03.457Z,196.67
2023-05-05T03:50:03.112Z,280
2023-05-05T03:55:03.467Z,390
2023-05-05T04:00:02.853Z,568.33
2023-05-05T04:05:02.540Z,751.67
2023-05-05T04:10:02.367Z,933.33
2023-05-05T04:15:03.236Z,1060
2023-05-05T04:20:03.255Z,1133.33
2023-05-05T04:25:03.066Z,1215
2023-05-05T04:30:03.207Z,1586.67
2023-05-05T04:35:02.603Z,1565
2023-05-05T04:40:02.630Z,1681.67
2023-05-05T04:45:02.630Z,1735
2023-05-05T04:50:03.348Z,2123.33
2023-05-05T04:55:03.790Z,2488.33
2023-05-05T05:00:03.080Z,2753.33
2023-05-05T05:05:02.828Z,3018.33
2023-05-05T05:10:02.531Z,3593.33
2023-05-05T05:15:02.440Z,2536.67
2023-05-05T05:20:03.196Z,3955
2023-05-05T05:25:03.145Z,4528.33
2023-05-05T05:30:03.002Z,4805
2023-05-05T05:35:03.091Z,5181.67
2023-05-05T05:40:02.798Z,5816.67
2023-05-05T05:45:02.812Z,6345
2023-05-05T05:50:02.732Z,6985
2023-05-05T05:55:02.986Z,7410
2023-05-05T06:00:02.817Z,9340
2023-05-05T06:05:03.223Z,8590
2023-05-05T06:10:27.103Z,9655
2023-05-05T06:15:02.783Z,6605
2023-05-05T06:20:02.560Z,5000
2023-05-05T06:25:03.307Z,6751.67
2023-05-05T06:30:03.202Z,8875
2023-05-05T06:35:02.862Z,7083.33
2023-05-05T06:40:02.545Z,7638.33
2023-05-05T06:45:02.748Z,6371.67
2023-05-05T06:50:03.570Z,27306.25
2023-05-05T06:55:03.836Z,4880
2023-05-05T07:00:02.789Z,10861.67
2023-05-05T07:05:02.461Z,28356.67
2023-05-05T07:10:03.143Z,27576.67
2023-05-05T07:15:26.521Z,28460
2023-05-05T07:20:02.987Z,27306.25
2023-05-05T07:25:03.204Z,11061.67
2023-05-05T07:30:10.267Z,8305
2023-05-05T07:35:03.152Z,10205
2023-05-05T07:40:02.884Z,27306.25
2023-05-05T07:45:02.965Z,9796.67
2023-05-05T07:50:02.692Z,76196.48
2023-05-05T07:55:03.289Z,79353.59
2023-05-05T08:00:03.121Z,42846.67
2023-05-05T08:05:02.837Z,54612.5
2023-05-05T08:10:02.843Z,44326.67
2023-05-05T08:15:02.843Z,27306.25
2023-05-05T08:20:02.452Z,45110
2023-05-05T08:25:03.130Z,45120
2023-05-05T08:30:03.441Z,79810
2023-05-05T08:35:02.924Z,72453.59
2023-05-05T08:40:02.638Z,36893.33
2023-05-05T08:45:03.440Z,36496.67
2023-05-05T08:50:02.557Z,72852.5
2023-05-05T08:55:03.503Z,87268.83
2023-05-05T09:00:02.802Z,87001.09
2023-05-05T09:05:03.566Z,78485.7
2023-05-05T09:10:02.411Z,91396.25
2023-05-05T09:15:03.223Z,88738.67
2023-05-05T09:20:03.296Z,97746.41
2023-05-05T09:25:02.992Z,30396.67
2023-05-05T09:30:02.724Z,78408.44
2023-05-05T09:35:02.411Z,97063.59
2023-05-05T09:40:03.342Z,105688.59
2023-05-05T09:45:02.911Z,104184.61
2023-05-05T09:50:02.696Z,44340
2023-05-05T09:55:04.447Z,43076.67
2023-05-05T10:00:02.854Z,42360
2023-05-05T10:05:02.895Z,89207.66
2023-05-05T10:10:02.643Z,39450
2023-05-05T10:15:03.398Z,34080
2023-05-05T10:20:03.279Z,104407.42
2023-05-05T10:25:02.912Z,32866.67
2023-05-05T10:30:03.350Z,36666.67
2023-05-05T10:35:03.227Z,44143.33
2023-05-05T10:40:03.332Z,31833.33
2023-05-05T10:45:03.209Z,54612.5
2023-05-05T10:50:02.908Z,54612.5
2023-05-05T10:55:03.697Z,36856.67
2023-05-05T11:00:03.039Z,76095.86
2023-05-05T11:05:02.765Z,54612.5
2023-05-05T11:10:02.447Z,114036.88
2023-05-05T11:15:03.312Z,87475.47
2023-05-05T11:20:03.140Z,109555.47
2023-05-05T11:25:02.838Z,115659.45
2023-05-05T11:30:02.627Z,113142.03
2023-05-05T11:35:02.393Z,104509.84
2023-05-05T11:40:02.450Z,112464.61
2023-05-05T11:45:03.192Z,100858.59
2023-05-05T11:50:02.835Z,94265.86
2023-05-05T11:55:03.815Z,96718.59
2023-05-05T12:00:03.405Z,104306.8
2023-05-05T12:05:02.613Z,105183.67
2023-05-05T12:10:02.705Z,94138.28
2023-05-05T12:15:03.269Z,90620
2023-05-05T12:20:03.032Z,97392.42
2023-05-05T12:25:02.751Z,102531.48
2023-05-05T12:30:02.566Z,100804.69
2023-05-05T12:35:03.391Z,104078.59
2023-05-05T12:40:03.113Z,101494.69
2023-05-05T12:45:03.072Z,92544.45
2023-05-05T12:50:02.558Z,101200
2023-05-05T12:55:03.309Z,44090
2023-05-05T13:00:02.504Z,38686.67
2023-05-05T13:05:03.176Z,78888.2
2023-05-05T13:10:02.881Z,103133.44
2023-05-05T13:15:02.688Z,95335
2023-05-05T13:20:03.349Z,44683.33
2023-05-05T13:25:03.248Z,27306.25
2023-05-05T13:30:02.954Z,27306.25
2023-05-05T13:35:02.795Z,29273.33
2023-05-05T13:40:02.355Z,54612.5
2023-05-05T13:45:03.329Z,54612.5
2023-05-05T13:50:02.928Z,39603.33
2023-05-05T13:55:04.090Z,38520
2023-05-05T14:00:02.658Z,54612.5
2023-05-05T14:05:03.389Z,27306.25
2023-05-05T14:10:03.115Z,9968.33
2023-05-05T14:15:02.759Z,28846.67
2023-05-05T14:20:02.745Z,54612.5
2023-05-05T14:25:02.629Z,35636.67
2023-05-05T14:30:03.417Z,27306.25
2023-05-05T14:35:03.256Z,33653.33
2023-05-05T14:40:06.130Z,30100
2023-05-05T14:45:03.134Z,27323.33
2023-05-05T14:50:03.007Z,30676.67
2023-05-05T14:55:03.812Z,28733.33
2023-05-05T15:00:02.953Z,27306.25
2023-05-05T15:05:02.911Z,27306.25
2023-05-05T15:10:02.618Z,27306.25
2023-05-05T15:15:02.582Z,27306.25
2023-05-05T15:20:03.368Z,9141.67
2023-05-05T15:25:03.298Z,8318.33
2023-05-05T15:30:03.530Z,7501.67
2023-05-05T15:35:02.777Z,6803.33
2023-05-05T15:40:02.580Z,6115
2023-05-05T15:45:03.827Z,5060
2023-05-05T15:50:03.316Z,4518.33
2023-05-05T15:55:03.548Z,5268.33
2023-05-05T16:00:02.713Z,5488.33
2023-05-05T16:05:02.349Z,5298.33
2023-05-05T16:10:03.327Z,4743.33
2023-05-05T16:15:03.202Z,4728.33
2023-05-05T16:20:02.907Z,5081.67
2023-05-05T16:25:02.764Z,4996.67
2023-05-05T16:30:02.633Z,4743.33
2023-05-05T16:35:02.427Z,4596.67
2023-05-05T16:40:03.245Z,4248.33
2023-05-05T16:45:03.318Z,4173.33
2023-05-05T16:50:02.816Z,3771.67
2023-05-05T16:55:03.544Z,2986.67
2023-05-05T17:00:03.632Z,2420
2023-05-05T17:05:03.223Z,1860
2023-05-05T17:10:02.899Z,1673.33
2023-05-05T17:15:02.830Z,1651.67
2023-05-05T17:20:02.621Z,1356.67
2023-05-05T17:25:03.279Z,1421.67
2023-05-05T17:30:03.051Z,1485
2023-05-05T17:35:02.761Z,1391.67
2023-05-05T17:40:02.543Z,1195
2023-05-05T17:45:02.671Z,973.33
2023-05-05T17:50:02.165Z,840
2023-05-05T17:55:03.799Z,820
2023-05-05T18:00:02.957Z,818.33
2023-05-05T18:05:02.659Z,701.67
2023-05-05T18:10:02.435Z,383.33
2023-05-05T18:15:03.283Z,198.33
2023-05-05T18:20:03.061Z,111.67
2023-05-05T18:25:02.912Z,56.67
2023-05-05T18:30:02.555Z,35
2023-05-05T18:35:02.558Z,33.33
2023-05-05T18:40:03.326Z,35
2023-05-05T18:45:03.187Z,33.33
2023-05-05T18:50:02.815Z,23.33
2023-05-05T18:55:03.134Z,8.33
2023-05-05T19:00:02.516Z,0.45
2023-05-05T19:05:03.434Z,0
2023-05-05T19:10:03.043Z,0
2023-05-05T19:15:02.693Z,0
2023-05-05T19:20:02.482Z,0
2023-05-05T19:25:03.421Z,0
2023-05-05T19:30:03.014Z,0
2023-05-05T19:35:02.820Z,0
2023-05-05T19:40:02.706Z,0
2023-05-05T19:45:02.888Z,0
2023-05-05T19:50:02.443Z,0
2023-05-05T19:55:04.006Z,0
2023-05-05T20:00:03.222Z,0
2023-05-05T20:05:03.148Z,0
2023-05-05T20:10:02.592Z,0
2023-05-05T20:15:02.484Z,0
2023-05-05T20:20:03.341Z,0
2023-05-05T20:25:03.115Z,0
2023-05-05T20:30:03.211Z,0
2023-05-05T20:35:03.057Z,0
2023-05-05T20:40:02.870Z,0
2023-05-05T20:45:02.803Z,0
2023-05-05T20:50:02.516Z,0
2023-05-05T20:55:04.174Z,0
2023-05-05T21:00:03.060Z,0
2023-05-05T21:05:02.681Z,0
2023-05-05T21:10:02.614Z,0
2023-05-05T21:15:03.350Z,0
2023-05-05T21:20:03.038Z,0
2023-05-05T21:25:02.901Z,0
2023-05-05T21:30:02.732Z,0
2023-05-05T21:35:02.455Z,0
2023-05-05T21:40:02.414Z,0
2023-05-05T21:45:03.225Z,0
2023-05-05T21:50:03.025Z,0
2023-05-05T21:55:03.432Z,0
2023-05-05T22:00:02.951Z,0
2023-05-05T22:05:02.681Z,0
2023-05-05T22:10:02.392Z,0
2023-05-05T22:15:03.086Z,0
2023-05-05T22:20:02.799Z,0
2023-05-05T22:25:02.540Z,0
2023-05-05T22:30:03.346Z,0
2023-05-05T22:35:03.062Z,0
2023-05-05T22:40:02.722Z,0
2023-05-05T22:45:02.693Z,0
2023-05-05T22:50:02.742Z,0
2023-05-05T22:55:03.668Z,0
2023-05-05T23:00:03.048Z,0
2023-05-05T23:05:02.870Z,0
2023-05-05T23:10:02.572Z,0
2023-05-05T23:15:03.269Z,0
2023-05-05T23:20:03.126Z,0
2023-05-05T23:25:02.668Z,0
2023-05-05T23:30:02.457Z,0
2023-05-05T23:35:03.329Z,0
2023-05-05T23:40:03.006Z,0
2023-05-05T23:45:03.044Z,0
2023-05-05T23:50:02.488Z,0
2023-05-05T23:55:03.912Z,0
